sensor_id;sensor_type;location;lat;lon;timestamp;temperature;humidity
21906;DHT22;11117;48.644;9.006;2023-01-23T00:01:29;0.80;99.90
21906;DHT22;11117;48.644;9.006;2023-01-23T00:03:55;0.70;99.90
21906;DHT22;11117;48.644;9.006;2023-01-23T00:06:21;0.70;99.90
21906;DHT22;11117;48.644;9.006;2023-01-23T00:08:47;0.60;99.90
21906;DHT22;11117;48.644;9.006;2023-01-23T00:11:16;0.60;99.90
21906;DHT22;11117;48.644;9.006;2023-01-23T00:13:45;0.60;99.90
21906;DHT22;11117;48.644;9.006;2023-01-23T00:16:16;0.60;99.90
21906;DHT22;11117;48.644;9.006;2023-01-23T00:18:43;0.50;99.90
21906;DHT22;11117;48.644;9.006;2023-01-23T00:21:11;0.60;99.90
21906;DHT22;11117;48.644;9.006;2023-01-23T00:23:42;0.50;99.90
21906;DHT22;11117;48.644;9.006;2023-01-23T00:26:11;0.60;99.90
21906;DHT22;11117;48.644;9.006;2023-01-23T00:28:41;0.60;99.90
21906;DHT22;11117;48.644;9.006;2023-01-23T00:31:13;0.60;99.90
21906;DHT22;11117;48.644;9.006;2023-01-23T00:33:51;0.60;99.90
21906;DHT22;11117;48.644;9.006;2023-01-23T00:36:50;0.60;99.90
21906;DHT22;11117;48.644;9.006;2023-01-23T00:39:20;0.70;99.90
21906;DHT22;11117;48.644;9.006;2023-01-23T00:41:48;0.70;99.90
21906;DHT22;11117;48.644;9.006;2023-01-23T00:51:32;0.60;99.90
21906;DHT22;11117;48.644;9.006;2023-01-23T00:53:59;0.60;99.90
21906;DHT22;11117;48.644;9.006;2023-01-23T00:56:27;0.70;99.90
21906;DHT22;11117;48.644;9.006;2023-01-23T00:58:53;0.70;99.90
21906;DHT22;11117;48.644;9.006;2023-01-23T01:01:19;0.70;99.90
21906;DHT22;11117;48.644;9.006;2023-01-23T01:06:21;0.80;99.90
21906;DHT22;11117;48.644;9.006;2023-01-23T01:08:56;0.90;99.90
21906;DHT22;11117;48.644;9.006;2023-01-23T01:11:31;0.80;99.90
21906;DHT22;11117;48.644;9.006;2023-01-23T01:14:10;0.80;99.90
21906;DHT22;11117;48.644;9.006;2023-01-23T01:16:41;0.80;99.90
21906;DHT22;11117;48.644;9.006;2023-01-23T01:29:38;0.70;99.90
21906;DHT22;11117;48.644;9.006;2023-01-23T01:32:04;0.70;99.90
21906;DHT22;11117;48.644;9.006;2023-01-23T01:34:30;0.60;99.90
21906;DHT22;11117;48.644;9.006;2023-01-23T01:36:55;0.60;99.90
21906;DHT22;11117;48.644;9.006;2023-01-23T01:46:28;0.50;99.90
21906;DHT22;11117;48.644;9.006;2023-01-23T01:52:18;0.40;99.90
21906;DHT22;11117;48.644;9.006;2023-01-23T01:55:02;0.40;99.90
21906;DHT22;11117;48.644;9.006;2023-01-23T01:57:47;0.40;99.90
21906;DHT22;11117;48.644;9.006;2023-01-23T02:11:23;0.50;99.90
21906;DHT22;11117;48.644;9.006;2023-01-23T02:49:58;0.70;99.90
21906;DHT22;11117;48.644;9.006;2023-01-23T02:53:14;0.50;99.90
21906;DHT22;11117;48.644;9.006;2023-01-23T02:55:35;0.50;99.90
21906;DHT22;11117;48.644;9.006;2023-01-23T02:58:00;0.50;99.90
21906;DHT22;11117;48.644;9.006;2023-01-23T03:04:02;0.50;99.90
21906;DHT22;11117;48.644;9.006;2023-01-23T03:14:10;0.60;99.90
21906;DHT22;11117;48.644;9.006;2023-01-23T03:16:37;0.60;99.90
21906;DHT22;11117;48.644;9.006;2023-01-23T03:19:05;0.60;99.90
21906;DHT22;11117;48.644;9.006;2023-01-23T03:21:32;0.60;99.90
21906;DHT22;11117;48.644;9.006;2023-01-23T03:23:58;0.60;99.90
21906;DHT22;11117;48.644;9.006;2023-01-23T03:26:24;0.50;99.90
21906;DHT22;11117;48.644;9.006;2023-01-23T03:28:52;0.60;99.90
21906;DHT22;11117;48.644;9.006;2023-01-23T03:31:17;0.70;99.90
21906;DHT22;11117;48.644;9.006;2023-01-23T03:33:43;0.70;99.90
21906;DHT22;11117;48.644;9.006;2023-01-23T03:36:10;0.40;99.90
21906;DHT22;11117;48.644;9.006;2023-01-23T03:38:43;0.40;99.90
21906;DHT22;11117;48.644;9.006;2023-01-23T03:41:14;0.40;99.90
21906;DHT22;11117;48.644;9.006;2023-01-23T03:43:40;0.40;99.90
21906;DHT22;11117;48.644;9.006;2023-01-23T04:14:39;0.60;99.90
21906;DHT22;11117;48.644;9.006;2023-01-23T04:17:26;0.50;99.90
21906;DHT22;11117;48.644;9.006;2023-01-23T04:19:52;0.70;99.90
21906;DHT22;11117;48.644;9.006;2023-01-23T04:22:17;0.70;99.90
21906;DHT22;11117;48.644;9.006;2023-01-23T04:24:46;0.70;99.90
21906;DHT22;11117;48.644;9.006;2023-01-23T04:27:17;0.70;99.90
21906;DHT22;11117;48.644;9.006;2023-01-23T04:29:43;0.70;99.90
21906;DHT22;11117;48.644;9.006;2023-01-23T04:32:08;0.60;99.90
21906;DHT22;11117;48.644;9.006;2023-01-23T04:34:34;0.70;99.90
21906;DHT22;11117;48.644;9.006;2023-01-23T04:37:00;0.60;99.90
21906;DHT22;11117;48.644;9.006;2023-01-23T04:39:29;0.60;99.90
21906;DHT22;11117;48.644;9.006;2023-01-23T04:41:55;0.60;99.90
21906;DHT22;11117;48.644;9.006;2023-01-23T04:44:20;0.70;99.90
21906;DHT22;11117;48.644;9.006;2023-01-23T04:46:47;0.60;99.90
21906;DHT22;11117;48.644;9.006;2023-01-23T04:49:13;0.70;99.90
21906;DHT22;11117;48.644;9.006;2023-01-23T04:51:38;0.70;99.90
21906;DHT22;11117;48.644;9.006;2023-01-23T04:54:04;0.80;99.90
21906;DHT22;11117;48.644;9.006;2023-01-23T04:56:29;0.70;99.90
21906;DHT22;11117;48.644;9.006;2023-01-23T04:58:55;0.70;99.90
21906;DHT22;11117;48.644;9.006;2023-01-23T05:01:21;0.70;99.90
21906;DHT22;11117;48.644;9.006;2023-01-23T05:03:46;0.70;99.90
21906;DHT22;11117;48.644;9.006;2023-01-23T05:06:12;0.70;99.90
21906;DHT22;11117;48.644;9.006;2023-01-23T05:08:37;0.80;99.90
21906;DHT22;11117;48.644;9.006;2023-01-23T05:11:03;0.80;99.90
21906;DHT22;11117;48.644;9.006;2023-01-23T05:13:28;0.70;99.90
21906;DHT22;11117;48.644;9.006;2023-01-23T05:15:54;0.70;99.90
21906;DHT22;11117;48.644;9.006;2023-01-23T05:18:21;0.60;99.90
21906;DHT22;11117;48.644;9.006;2023-01-23T05:20:46;0.60;99.90
21906;DHT22;11117;48.644;9.006;2023-01-23T05:23:12;0.60;99.90
21906;DHT22;11117;48.644;9.006;2023-01-23T05:25:40;0.60;99.90
21906;DHT22;11117;48.644;9.006;2023-01-23T05:28:06;0.60;99.90
21906;DHT22;11117;48.644;9.006;2023-01-23T05:30:32;0.50;99.90
21906;DHT22;11117;48.644;9.006;2023-01-23T05:32:57;0.50;99.90
21906;DHT22;11117;48.644;9.006;2023-01-23T05:35:23;0.60;99.90
21906;DHT22;11117;48.644;9.006;2023-01-23T05:37:54;0.50;99.90
21906;DHT22;11117;48.644;9.006;2023-01-23T05:40:20;0.50;99.90
21906;DHT22;11117;48.644;9.006;2023-01-23T05:42:47;0.50;99.90
21906;DHT22;11117;48.644;9.006;2023-01-23T05:45:13;0.50;99.90
21906;DHT22;11117;48.644;9.006;2023-01-23T05:47:39;0.50;99.90
21906;DHT22;11117;48.644;9.006;2023-01-23T05:50:06;0.30;99.90
21906;DHT22;11117;48.644;9.006;2023-01-23T05:52:32;0.40;99.90
21906;DHT22;11117;48.644;9.006;2023-01-23T05:54:58;0.50;99.90
21906;DHT22;11117;48.644;9.006;2023-01-23T05:57:23;0.50;99.90
21906;DHT22;11117;48.644;9.006;2023-01-23T05:59:49;0.60;99.90
21906;DHT22;11117;48.644;9.006;2023-01-23T06:02:18;0.60;99.90
21906;DHT22;11117;48.644;9.006;2023-01-23T06:04:47;0.60;99.90
21906;DHT22;11117;48.644;9.006;2023-01-23T06:07:13;0.50;99.90
21906;DHT22;11117;48.644;9.006;2023-01-23T06:09:39;0.60;99.90
21906;DHT22;11117;48.644;9.006;2023-01-23T06:12:05;0.40;99.90
21906;DHT22;11117;48.644;9.006;2023-01-23T06:14:31;0.50;99.90
21906;DHT22;11117;48.644;9.006;2023-01-23T06:16:56;0.60;99.90
21906;DHT22;11117;48.644;9.006;2023-01-23T06:19:24;0.50;99.90
21906;DHT22;11117;48.644;9.006;2023-01-23T06:21:49;0.50;99.90
21906;DHT22;11117;48.644;9.006;2023-01-23T06:24:15;0.50;99.90
21906;DHT22;11117;48.644;9.006;2023-01-23T06:26:41;0.40;99.90
21906;DHT22;11117;48.644;9.006;2023-01-23T06:29:06;0.30;99.90
21906;DHT22;11117;48.644;9.006;2023-01-23T06:31:32;0.30;99.90
21906;DHT22;11117;48.644;9.006;2023-01-23T06:33:58;0.30;99.90
21906;DHT22;11117;48.644;9.006;2023-01-23T06:36:25;0.30;99.90
21906;DHT22;11117;48.644;9.006;2023-01-23T06:38:51;0.20;99.90
21906;DHT22;11117;48.644;9.006;2023-01-23T06:41:16;0.20;99.90
21906;DHT22;11117;48.644;9.006;2023-01-23T06:43:42;0.30;99.90
21906;DHT22;11117;48.644;9.006;2023-01-23T06:46:08;0.30;99.90
21906;DHT22;11117;48.644;9.006;2023-01-23T06:48:37;0.30;99.90
21906;DHT22;11117;48.644;9.006;2023-01-23T06:51:03;0.30;99.90
21906;DHT22;11117;48.644;9.006;2023-01-23T06:53:29;0.30;99.90
21906;DHT22;11117;48.644;9.006;2023-01-23T06:56:04;0.20;99.90
21906;DHT22;11117;48.644;9.006;2023-01-23T06:58:30;0.30;99.90
21906;DHT22;11117;48.644;9.006;2023-01-23T07:00:56;0.30;99.90
21906;DHT22;11117;48.644;9.006;2023-01-23T07:03:22;0.40;99.90
21906;DHT22;11117;48.644;9.006;2023-01-23T07:05:48;0.40;99.90
21906;DHT22;11117;48.644;9.006;2023-01-23T07:08:14;0.50;99.90
21906;DHT22;11117;48.644;9.006;2023-01-23T07:10:40;0.40;99.90
21906;DHT22;11117;48.644;9.006;2023-01-23T07:13:07;0.50;99.90
21906;DHT22;11117;48.644;9.006;2023-01-23T07:15:33;0.40;99.90
21906;DHT22;11117;48.644;9.006;2023-01-23T07:17:59;0.30;99.90
21906;DHT22;11117;48.644;9.006;2023-01-23T07:20:26;0.40;99.90
21906;DHT22;11117;48.644;9.006;2023-01-23T07:22:56;0.30;99.90
21906;DHT22;11117;48.644;9.006;2023-01-23T07:25:24;0.30;99.90
21906;DHT22;11117;48.644;9.006;2023-01-23T07:27:50;0.20;99.90
21906;DHT22;11117;48.644;9.006;2023-01-23T07:30:16;0.20;99.90
21906;DHT22;11117;48.644;9.006;2023-01-23T07:32:42;0.20;99.90
21906;DHT22;11117;48.644;9.006;2023-01-23T07:35:10;0.20;99.90
21906;DHT22;11117;48.644;9.006;2023-01-23T07:37:36;0.20;99.90
21906;DHT22;11117;48.644;9.006;2023-01-23T07:40:02;0.10;99.90
21906;DHT22;11117;48.644;9.006;2023-01-23T07:42:27;0.20;99.90
21906;DHT22;11117;48.644;9.006;2023-01-23T07:44:53;0.20;99.90
21906;DHT22;11117;48.644;9.006;2023-01-23T07:47:18;0.20;99.90
21906;DHT22;11117;48.644;9.006;2023-01-23T07:49:44;0.30;99.90
21906;DHT22;11117;48.644;9.006;2023-01-23T07:52:10;0.30;99.90
21906;DHT22;11117;48.644;9.006;2023-01-23T07:54:38;0.30;99.90
21906;DHT22;11117;48.644;9.006;2023-01-23T07:57:03;0.20;99.90
21906;DHT22;11117;48.644;9.006;2023-01-23T07:59:29;0.10;99.90
21906;DHT22;11117;48.644;9.006;2023-01-23T08:01:57;0.10;99.90
21906;DHT22;11117;48.644;9.006;2023-01-23T08:04:23;0.10;99.90
21906;DHT22;11117;48.644;9.006;2023-01-23T08:06:49;0.20;99.90
21906;DHT22;11117;48.644;9.006;2023-01-23T08:09:17;0.30;99.90
21906;DHT22;11117;48.644;9.006;2023-01-23T08:11:42;0.30;99.90
21906;DHT22;11117;48.644;9.006;2023-01-23T08:14:09;0.30;99.90
21906;DHT22;11117;48.644;9.006;2023-01-23T08:16:35;0.20;99.90
21906;DHT22;11117;48.644;9.006;2023-01-23T08:19:00;0.20;99.90
21906;DHT22;11117;48.644;9.006;2023-01-23T08:21:26;0.20;99.90
21906;DHT22;11117;48.644;9.006;2023-01-23T08:23:51;0.20;99.90
21906;DHT22;11117;48.644;9.006;2023-01-23T08:26:17;0.20;99.90
21906;DHT22;11117;48.644;9.006;2023-01-23T08:28:43;0.20;99.90
21906;DHT22;11117;48.644;9.006;2023-01-23T08:31:11;0.40;99.90
21906;DHT22;11117;48.644;9.006;2023-01-23T08:33:37;0.40;99.90
21906;DHT22;11117;48.644;9.006;2023-01-23T08:36:04;0.40;99.90
21906;DHT22;11117;48.644;9.006;2023-01-23T08:38:31;0.40;99.90
21906;DHT22;11117;48.644;9.006;2023-01-23T08:40:59;0.60;99.90
21906;DHT22;11117;48.644;9.006;2023-01-23T08:43:25;0.50;99.90
21906;DHT22;11117;48.644;9.006;2023-01-23T08:45:53;0.50;99.90
21906;DHT22;11117;48.644;9.006;2023-01-23T08:48:20;0.50;99.90
21906;DHT22;11117;48.644;9.006;2023-01-23T08:50:46;0.60;99.90
21906;DHT22;11117;48.644;9.006;2023-01-23T08:53:12;0.60;99.90
21906;DHT22;11117;48.644;9.006;2023-01-23T08:55:37;0.70;99.90
21906;DHT22;11117;48.644;9.006;2023-01-23T08:58:08;0.80;99.90
21906;DHT22;11117;48.644;9.006;2023-01-23T09:00:34;0.80;99.90
21906;DHT22;11117;48.644;9.006;2023-01-23T09:03:01;0.90;99.90
21906;DHT22;11117;48.644;9.006;2023-01-23T09:05:27;0.90;99.90
21906;DHT22;11117;48.644;9.006;2023-01-23T09:07:54;0.90;99.90
21906;DHT22;11117;48.644;9.006;2023-01-23T09:10:19;1.10;99.90
21906;DHT22;11117;48.644;9.006;2023-01-23T09:12:45;1.00;99.90
21906;DHT22;11117;48.644;9.006;2023-01-23T09:15:11;1.20;99.90
21906;DHT22;11117;48.644;9.006;2023-01-23T09:17:36;1.30;99.90
21906;DHT22;11117;48.644;9.006;2023-01-23T09:20:02;1.30;99.90
21906;DHT22;11117;48.644;9.006;2023-01-23T09:22:28;1.10;99.90
21906;DHT22;11117;48.644;9.006;2023-01-23T09:24:53;1.20;99.90
21906;DHT22;11117;48.644;9.006;2023-01-23T09:27:19;1.20;99.90
21906;DHT22;11117;48.644;9.006;2023-01-23T09:29:45;0.90;99.90
21906;DHT22;11117;48.644;9.006;2023-01-23T09:32:10;1.20;99.90
21906;DHT22;11117;48.644;9.006;2023-01-23T09:34:36;1.20;99.90
21906;DHT22;11117;48.644;9.006;2023-01-23T09:37:01;1.30;99.90
21906;DHT22;11117;48.644;9.006;2023-01-23T09:39:27;1.20;99.90
21906;DHT22;11117;48.644;9.006;2023-01-23T09:41:52;1.20;99.90
21906;DHT22;11117;48.644;9.006;2023-01-23T09:44:34;1.10;99.90
21906;DHT22;11117;48.644;9.006;2023-01-23T09:47:05;1.10;99.90
21906;DHT22;11117;48.644;9.006;2023-01-23T09:52:57;0.90;99.90
21906;DHT22;11117;48.644;9.006;2023-01-23T09:57:59;1.00;99.90
21906;DHT22;11117;48.644;9.006;2023-01-23T10:00:30;1.10;99.90
21906;DHT22;11117;48.644;9.006;2023-01-23T10:03:00;1.20;99.90
21906;DHT22;11117;48.644;9.006;2023-01-23T10:14:22;1.10;99.90
21906;DHT22;11117;48.644;9.006;2023-01-23T10:17:28;1.10;99.90
21906;DHT22;11117;48.644;9.006;2023-01-23T10:23:01;1.20;99.90
21906;DHT22;11117;48.644;9.006;2023-01-23T10:25:31;1.30;99.90
21906;DHT22;11117;48.644;9.006;2023-01-23T10:30:47;1.70;99.90
21906;DHT22;11117;48.644;9.006;2023-01-23T10:33:15;1.90;99.90
21906;DHT22;11117;48.644;9.006;2023-01-23T10:35:48;1.80;99.90
21906;DHT22;11117;48.644;9.006;2023-01-23T10:38:36;1.90;99.90
21906;DHT22;11117;48.644;9.006;2023-01-23T10:41:12;2.00;99.90
21906;DHT22;11117;48.644;9.006;2023-01-23T10:43:38;1.90;99.90
21906;DHT22;11117;48.644;9.006;2023-01-23T10:46:15;2.10;99.90
21906;DHT22;11117;48.644;9.006;2023-01-23T10:48:49;2.20;99.90
21906;DHT22;11117;48.644;9.006;2023-01-23T11:04:30;1.60;99.90
21906;DHT22;11117;48.644;9.006;2023-01-23T11:07:12;1.80;99.90
21906;DHT22;11117;48.644;9.006;2023-01-23T11:12:27;1.90;99.90
21906;DHT22;11117;48.644;9.006;2023-01-23T11:17:44;2.20;99.90
21906;DHT22;11117;48.644;9.006;2023-01-23T11:25:39;1.90;99.90
21906;DHT22;11117;48.644;9.006;2023-01-23T11:28:21;1.80;99.90
21906;DHT22;11117;48.644;9.006;2023-01-23T11:39:04;1.90;99.90
21906;DHT22;11117;48.644;9.006;2023-01-23T11:41:34;1.70;99.90
21906;DHT22;11117;48.644;9.006;2023-01-23T11:44:07;1.50;99.90
21906;DHT22;11117;48.644;9.006;2023-01-23T11:58:50;1.60;99.90
21906;DHT22;11117;48.644;9.006;2023-01-23T12:01:41;1.60;99.90
21906;DHT22;11117;48.644;9.006;2023-01-23T12:04:38;1.60;99.90
21906;DHT22;11117;48.644;9.006;2023-01-23T12:07:22;1.70;99.90
21906;DHT22;11117;48.644;9.006;2023-01-23T12:23:24;1.60;99.90
21906;DHT22;11117;48.644;9.006;2023-01-23T12:26:04;1.70;99.90
21906;DHT22;11117;48.644;9.006;2023-01-23T12:33:35;1.80;99.90
21906;DHT22;11117;48.644;9.006;2023-01-23T12:36:35;2.10;99.90
21906;DHT22;11117;48.644;9.006;2023-01-23T12:42:02;1.80;99.90
21906;DHT22;11117;48.644;9.006;2023-01-23T12:44:34;1.90;99.90
21906;DHT22;11117;48.644;9.006;2023-01-23T12:53:29;2.30;99.90
21906;DHT22;11117;48.644;9.006;2023-01-23T12:56:38;2.40;99.90
21906;DHT22;11117;48.644;9.006;2023-01-23T13:05:26;2.40;99.90
21906;DHT22;11117;48.644;9.006;2023-01-23T13:11:17;2.60;99.90
21906;DHT22;11117;48.644;9.006;2023-01-23T13:21:13;2.70;99.90
21906;DHT22;11117;48.644;9.006;2023-01-23T13:27:46;2.40;99.90
21906;DHT22;11117;48.644;9.006;2023-01-23T13:38:28;2.20;99.90
21906;DHT22;11117;48.644;9.006;2023-01-23T13:43:54;2.50;99.90
21906;DHT22;11117;48.644;9.006;2023-01-23T13:51:33;2.30;99.90
21906;DHT22;11117;48.644;9.006;2023-01-23T13:53:58;2.20;99.90
21906;DHT22;11117;48.644;9.006;2023-01-23T13:56:25;2.30;99.90
21906;DHT22;11117;48.644;9.006;2023-01-23T13:58:51;2.40;99.90
21906;DHT22;11117;48.644;9.006;2023-01-23T14:01:19;2.40;99.90
21906;DHT22;11117;48.644;9.006;2023-01-23T14:03:54;2.40;99.90
21906;DHT22;11117;48.644;9.006;2023-01-23T14:06:31;2.30;99.90
21906;DHT22;11117;48.644;9.006;2023-01-23T14:08:58;2.20;99.90
21906;DHT22;11117;48.644;9.006;2023-01-23T14:11:30;2.00;99.90
21906;DHT22;11117;48.644;9.006;2023-01-23T14:14:00;2.10;99.90
21906;DHT22;11117;48.644;9.006;2023-01-23T14:16:25;2.10;99.90
21906;DHT22;11117;48.644;9.006;2023-01-23T14:18:55;2.10;99.90
21906;DHT22;11117;48.644;9.006;2023-01-23T14:21:28;2.20;99.90
21906;DHT22;11117;48.644;9.006;2023-01-23T14:23:57;2.30;99.90
21906;DHT22;11117;48.644;9.006;2023-01-23T14:26:28;2.10;99.90
21906;DHT22;11117;48.644;9.006;2023-01-23T14:31:27;1.80;99.90
21906;DHT22;11117;48.644;9.006;2023-01-23T14:34:20;1.90;99.90
21906;DHT22;11117;48.644;9.006;2023-01-23T14:36:51;1.90;99.90
21906;DHT22;11117;48.644;9.006;2023-01-23T14:39:23;1.90;99.90
21906;DHT22;11117;48.644;9.006;2023-01-23T14:41:56;1.70;99.90
21906;DHT22;11117;48.644;9.006;2023-01-23T14:46:58;1.80;99.90
21906;DHT22;11117;48.644;9.006;2023-01-23T14:49:27;1.70;99.90
21906;DHT22;11117;48.644;9.006;2023-01-23T14:51:59;1.70;99.90
21906;DHT22;11117;48.644;9.006;2023-01-23T14:54:26;1.80;99.90
21906;DHT22;11117;48.644;9.006;2023-01-23T14:56:52;1.70;99.90
21906;DHT22;11117;48.644;9.006;2023-01-23T14:59:26;1.80;99.90
21906;DHT22;11117;48.644;9.006;2023-01-23T15:01:56;1.70;99.90
21906;DHT22;11117;48.644;9.006;2023-01-23T15:04:24;1.60;99.90
21906;DHT22;11117;48.644;9.006;2023-01-23T15:06:52;1.60;99.90
21906;DHT22;11117;48.644;9.006;2023-01-23T15:09:35;1.60;99.90
21906;DHT22;11117;48.644;9.006;2023-01-23T15:12:13;1.50;99.90
21906;DHT22;11117;48.644;9.006;2023-01-23T15:14:40;1.50;99.90
21906;DHT22;11117;48.644;9.006;2023-01-23T15:17:12;1.60;99.90
21906;DHT22;11117;48.644;9.006;2023-01-23T15:19:39;1.50;99.90
21906;DHT22;11117;48.644;9.006;2023-01-23T15:22:20;1.60;99.90
21906;DHT22;11117;48.644;9.006;2023-01-23T15:24:46;1.40;99.90
21906;DHT22;11117;48.644;9.006;2023-01-23T15:27:32;1.50;99.90
21906;DHT22;11117;48.644;9.006;2023-01-23T15:33:25;1.90;99.90
21906;DHT22;11117;48.644;9.006;2023-01-23T15:35:51;1.70;99.90
21906;DHT22;11117;48.644;9.006;2023-01-23T15:38:25;1.50;99.90
21906;DHT22;11117;48.644;9.006;2023-01-23T15:40:51;1.50;99.90
21906;DHT22;11117;48.644;9.006;2023-01-23T15:43:18;1.50;99.90
21906;DHT22;11117;48.644;9.006;2023-01-23T15:45:44;1.40;99.90
21906;DHT22;11117;48.644;9.006;2023-01-23T15:48:09;1.30;99.90
21906;DHT22;11117;48.644;9.006;2023-01-23T15:50:35;1.40;99.90
21906;DHT22;11117;48.644;9.006;2023-01-23T15:53:01;1.40;99.90
21906;DHT22;11117;48.644;9.006;2023-01-23T15:55:27;1.40;99.90
21906;DHT22;11117;48.644;9.006;2023-01-23T15:57:53;1.40;99.90
21906;DHT22;11117;48.644;9.006;2023-01-23T16:00:22;1.50;99.90
21906;DHT22;11117;48.644;9.006;2023-01-23T16:02:48;1.40;99.90
21906;DHT22;11117;48.644;9.006;2023-01-23T16:05:13;1.40;99.90
21906;DHT22;11117;48.644;9.006;2023-01-23T16:07:41;1.40;99.90
21906;DHT22;11117;48.644;9.006;2023-01-23T16:10:20;1.40;99.90
21906;DHT22;11117;48.644;9.006;2023-01-23T16:12:48;1.40;99.90
21906;DHT22;11117;48.644;9.006;2023-01-23T16:15:16;1.40;99.90
21906;DHT22;11117;48.644;9.006;2023-01-23T16:17:42;1.40;99.90
21906;DHT22;11117;48.644;9.006;2023-01-23T16:20:19;1.30;99.90
21906;DHT22;11117;48.644;9.006;2023-01-23T16:22:49;1.40;99.90
21906;DHT22;11117;48.644;9.006;2023-01-23T16:25:30;1.40;99.90
21906;DHT22;11117;48.644;9.006;2023-01-23T16:27:56;1.30;99.90
21906;DHT22;11117;48.644;9.006;2023-01-23T16:30:25;1.30;99.90
21906;DHT22;11117;48.644;9.006;2023-01-23T16:32:52;1.40;99.90
21906;DHT22;11117;48.644;9.006;2023-01-23T16:35:24;1.40;99.90
21906;DHT22;11117;48.644;9.006;2023-01-23T16:37:54;1.30;99.90
21906;DHT22;11117;48.644;9.006;2023-01-23T16:40:22;1.30;99.90
21906;DHT22;11117;48.644;9.006;2023-01-23T16:42:50;1.20;99.90
21906;DHT22;11117;48.644;9.006;2023-01-23T16:45:19;1.20;99.90
21906;DHT22;11117;48.644;9.006;2023-01-23T16:47:45;1.30;99.90
21906;DHT22;11117;48.644;9.006;2023-01-23T16:53:58;1.10;99.90
21906;DHT22;11117;48.644;9.006;2023-01-23T17:00:33;1.00;99.90
21906;DHT22;11117;48.644;9.006;2023-01-23T17:06:29;1.00;99.90
21906;DHT22;11117;48.644;9.006;2023-01-23T17:08:54;1.20;99.90
21906;DHT22;11117;48.644;9.006;2023-01-23T17:11:25;1.10;99.90
21906;DHT22;11117;48.644;9.006;2023-01-23T17:13:56;1.10;99.90
21906;DHT22;11117;48.644;9.006;2023-01-23T17:16:22;1.10;99.90
21906;DHT22;11117;48.644;9.006;2023-01-23T17:18:48;1.10;99.90
21906;DHT22;11117;48.644;9.006;2023-01-23T17:21:18;1.10;99.90
21906;DHT22;11117;48.644;9.006;2023-01-23T17:23:44;1.00;99.90
21906;DHT22;11117;48.644;9.006;2023-01-23T17:26:16;1.00;99.90
21906;DHT22;11117;48.644;9.006;2023-01-23T17:28:42;1.00;99.90
21906;DHT22;11117;48.644;9.006;2023-01-23T17:31:13;1.10;99.90
21906;DHT22;11117;48.644;9.006;2023-01-23T17:33:40;1.10;99.90
21906;DHT22;11117;48.644;9.006;2023-01-23T17:36:06;1.10;99.90
21906;DHT22;11117;48.644;9.006;2023-01-23T17:38:32;1.10;99.90
21906;DHT22;11117;48.644;9.006;2023-01-23T17:40:57;1.10;99.90
21906;DHT22;11117;48.644;9.006;2023-01-23T17:43:23;1.10;99.90
21906;DHT22;11117;48.644;9.006;2023-01-23T17:45:49;1.10;99.90
21906;DHT22;11117;48.644;9.006;2023-01-23T17:48:17;1.10;99.90
21906;DHT22;11117;48.644;9.006;2023-01-23T17:50:49;1.20;99.90
21906;DHT22;11117;48.644;9.006;2023-01-23T17:53:15;1.20;99.90
21906;DHT22;11117;48.644;9.006;2023-01-23T17:55:41;1.10;99.90
21906;DHT22;11117;48.644;9.006;2023-01-23T17:58:08;1.20;99.90
21906;DHT22;11117;48.644;9.006;2023-01-23T18:00:34;1.20;99.90
21906;DHT22;11117;48.644;9.006;2023-01-23T18:03:02;1.10;99.90
21906;DHT22;11117;48.644;9.006;2023-01-23T18:05:28;1.10;99.90
21906;DHT22;11117;48.644;9.006;2023-01-23T18:07:54;1.20;99.90
21906;DHT22;11117;48.644;9.006;2023-01-23T18:10:20;1.10;99.90
21906;DHT22;11117;48.644;9.006;2023-01-23T18:12:48;1.10;99.90
21906;DHT22;11117;48.644;9.006;2023-01-23T18:15:22;1.10;99.90
21906;DHT22;11117;48.644;9.006;2023-01-23T18:18:04;1.10;99.90
21906;DHT22;11117;48.644;9.006;2023-01-23T18:20:33;1.20;99.90
21906;DHT22;11117;48.644;9.006;2023-01-23T18:22:59;1.20;99.90
21906;DHT22;11117;48.644;9.006;2023-01-23T18:25:25;1.20;99.90
21906;DHT22;11117;48.644;9.006;2023-01-23T18:27:54;1.20;99.90
21906;DHT22;11117;48.644;9.006;2023-01-23T18:31:00;1.30;99.90
21906;DHT22;11117;48.644;9.006;2023-01-23T18:36:36;1.20;99.90
21906;DHT22;11117;48.644;9.006;2023-01-23T18:42:14;1.10;99.90
21906;DHT22;11117;48.644;9.006;2023-01-23T18:44:45;1.10;99.90
21906;DHT22;11117;48.644;9.006;2023-01-23T18:47:15;1.00;99.90
21906;DHT22;11117;48.644;9.006;2023-01-23T18:49:41;1.00;99.90
21906;DHT22;11117;48.644;9.006;2023-01-23T18:52:11;1.00;99.90
21906;DHT22;11117;48.644;9.006;2023-01-23T18:54:51;1.00;99.90
21906;DHT22;11117;48.644;9.006;2023-01-23T19:05:26;1.00;99.90
21906;DHT22;11117;48.644;9.006;2023-01-23T19:07:52;1.00;99.90
21906;DHT22;11117;48.644;9.006;2023-01-23T19:10:26;1.00;99.90
21906;DHT22;11117;48.644;9.006;2023-01-23T19:21:18;1.10;99.90
21906;DHT22;11117;48.644;9.006;2023-01-23T19:24:04;1.10;99.90
21906;DHT22;11117;48.644;9.006;2023-01-23T19:26:35;1.10;99.90
21906;DHT22;11117;48.644;9.006;2023-01-23T19:29:03;1.10;99.90
21906;DHT22;11117;48.644;9.006;2023-01-23T19:31:34;1.10;99.90
21906;DHT22;11117;48.644;9.006;2023-01-23T19:34:01;1.10;99.90
21906;DHT22;11117;48.644;9.006;2023-01-23T19:36:28;1.20;99.90
21906;DHT22;11117;48.644;9.006;2023-01-23T19:38:54;1.20;99.90
21906;DHT22;11117;48.644;9.006;2023-01-23T19:41:22;1.20;99.90
21906;DHT22;11117;48.644;9.006;2023-01-23T19:43:54;1.30;99.90
21906;DHT22;11117;48.644;9.006;2023-01-23T19:46:23;1.30;99.90
21906;DHT22;11117;48.644;9.006;2023-01-23T19:48:49;1.30;99.90
21906;DHT22;11117;48.644;9.006;2023-01-23T19:51:17;1.40;99.90
21906;DHT22;11117;48.644;9.006;2023-01-23T19:53:44;1.50;99.90
21906;DHT22;11117;48.644;9.006;2023-01-23T19:56:11;1.50;99.90
21906;DHT22;11117;48.644;9.006;2023-01-23T19:58:37;1.40;99.90
21906;DHT22;11117;48.644;9.006;2023-01-23T20:01:49;1.40;99.90
21906;DHT22;11117;48.644;9.006;2023-01-23T20:03:49;1.40;99.90
21906;DHT22;11117;48.644;9.006;2023-01-23T20:06:27;1.40;99.90
21906;DHT22;11117;48.644;9.006;2023-01-23T20:08:53;1.50;99.90
21906;DHT22;11117;48.644;9.006;2023-01-23T20:11:18;1.50;99.90
21906;DHT22;11117;48.644;9.006;2023-01-23T20:13:46;1.40;99.90
21906;DHT22;11117;48.644;9.006;2023-01-23T20:16:20;1.50;99.90
21906;DHT22;11117;48.644;9.006;2023-01-23T20:18:47;1.50;99.90
21906;DHT22;11117;48.644;9.006;2023-01-23T20:21:14;1.50;99.90
21906;DHT22;11117;48.644;9.006;2023-01-23T20:23:46;1.50;99.90
21906;DHT22;11117;48.644;9.006;2023-01-23T20:26:12;1.50;99.90
21906;DHT22;11117;48.644;9.006;2023-01-23T20:28:38;1.50;99.90
21906;DHT22;11117;48.644;9.006;2023-01-23T20:31:06;1.50;99.90
21906;DHT22;11117;48.644;9.006;2023-01-23T20:33:32;1.50;99.90
21906;DHT22;11117;48.644;9.006;2023-01-23T20:35:57;1.50;99.90
21906;DHT22;11117;48.644;9.006;2023-01-23T20:38:23;1.60;99.90
21906;DHT22;11117;48.644;9.006;2023-01-23T20:40:49;1.50;99.90
21906;DHT22;11117;48.644;9.006;2023-01-23T20:43:15;1.50;99.90
21906;DHT22;11117;48.644;9.006;2023-01-23T20:45:58;1.60;99.90
21906;DHT22;11117;48.644;9.006;2023-01-23T20:48:24;1.60;99.90